« Back
NWS Peachtree City, Ga » Text Product » MCN Terminal Aerodrome Forecast


Printer-friendly Version
Current Version              Previous Versions:   1  2  3  4  5  6  7  8  9  

Terminal Aerodrome Forecast

860
FTUS42 KFFC 271130
TAFMCN
TAF
KMCN 271130Z 2712/2812 VRB03KT P6SM SCT060
     FM271500 14008KT P6SM SCT050 BKN250
     FM272300 13005KT P6SM FEW050 SCT250=



USA.gov is the U.S. government's official web portal to all federal, state and local government web resources and services.